CWSW

Sparwood / Elk Valley Airport

Sparwood/Elk Valley, Canada
METAR CWSW 130000Z VRB02KT 15SM FEW010 FEW020 OVC028 M02/M07 A3061 RMK ST1SC2SC6 ST TR LAST STFD OBS/NEXT 131400Z SLP431
Observed Flight Rules
Nov-13 @ 00:00 UTC (7 hours ago) Marginal Visual Flight Rules
Wind Visibility Clouds
Variable at 2 knots 15 miles
  • Few at 1,000' AGL
  • Few at 2,000' AGL
  • Overcast at 2,800' AGL
Temperatures Readings
Current -2°C / 28°F
Dewpoint -7°C / 19°F
Humidity 69%
Altimeter 30.61" Hg
Pressure 1043.1 hPa
Elevation 1138
METAR CWSW 130000Z VRB02KT 15SM FEW010 FEW020 OVC028 M02/M07 A3061 RMK ST1SC2SC6 ST TR LAST STFD OBS/NEXT 131400Z SLP431
Observed Flight Rules
Nov-13 @ 00:00 UTC
(7 hours ago)
MVFR
Wind Visibility
Variable at 2 knots 15 miles
Clouds
  • Few at 1,000' AGL
  • Few at 2,000' AGL
  • Overcast at 2,800' AGL
Temperature Dewpoint
-2°C / 28°F -7°C / 19°F
Humidity Altimeter Pressure
69% 30.61" Hg 1043.1 hPa